ISR203 URSS-UWSG
Flight info
| Callsign | ISR203 |
|---|---|
| Flight time | 1h 13m |
| Altitude | 35000 |
| Route | IRGID1C IRGID A944 GUBOR G487 ERSAR DCT MOMER DCT EVZUN DCT LIDUS N50 SL DCT RODUN R807 UROBO P135 KR KR1H |
| Aircraft | C700/M-SBDGHM1RWXY/LB2 |
Departure
| Time | 2026-04-26 13:46 |
|---|---|
| Airport | Sochi International Airport (URSS) |
Arrival
| Time | 2026-04-26 14:59 |
|---|---|
| Airport | Gagarin International Airport (UWSG) |
| Time | Latitude | Longitude | Altitude | Speed | Heading |
|---|---|---|---|---|---|
| 2026-04-26 13:38 | 43.44563 | 39.93876 | 63 ft | 0 kts | 4° |
| 2026-04-26 13:40 | 43.44554 | 39.93875 | 59 ft | 2 kts | 4° |
| 2026-04-26 13:40 | 43.44538 | 39.93873 | 61 ft | 2 kts | 7° |
| 2026-04-26 13:41 | 43.44522 | 39.93871 | 62 ft | 2 kts | 6° |
| 2026-04-26 13:41 | 43.44507 | 39.93862 | 63 ft | 2 kts | 49° |
| 2026-04-26 13:41 | 43.44505 | 39.93857 | 63 ft | 0 kts | 66° |
| 2026-04-26 13:42 | 43.44507 | 39.93864 | 63 ft | 4 kts | 66° |
| 2026-04-26 13:42 | 43.44520 | 39.93904 | 64 ft | 6 kts | 66° |
| 2026-04-26 13:42 | 43.44539 | 39.93960 | 65 ft | 7 kts | 64° |
| 2026-04-26 13:43 | 43.44564 | 39.94034 | 63 ft | 10 kts | 65° |
| 2026-04-26 13:43 | 43.44595 | 39.94125 | 60 ft | 11 kts | 64° |
| 2026-04-26 13:43 | 43.44631 | 39.94231 | 66 ft | 13 kts | 64° |
| 2026-04-26 13:43 | 43.44672 | 39.94351 | 69 ft | 15 kts | 65° |
| 2026-04-26 13:44 | 43.44719 | 39.94487 | 70 ft | 17 kts | 65° |
| 2026-04-26 13:44 | 43.44771 | 39.94637 | 66 ft | 18 kts | 65° |
| 2026-04-26 13:44 | 43.44825 | 39.94800 | 76 ft | 20 kts | 65° |
| 2026-04-26 13:44 | 43.44886 | 39.94975 | 72 ft | 21 kts | 66° |
| 2026-04-26 13:45 | 43.44953 | 39.95157 | 81 ft | 22 kts | 61° |
| 2026-04-26 13:45 | 43.45017 | 39.95350 | 84 ft | 21 kts | 64° |
| 2026-04-26 13:45 | 43.45055 | 39.95485 | 87 ft | 13 kts | 98° |
| 2026-04-26 13:45 | 43.44982 | 39.95564 | 85 ft | 14 kts | 157° |
| 2026-04-26 13:46 | 43.44931 | 39.95582 | 87 ft | 9 kts | 190° |
| 2026-04-26 13:46 | 43.44760 | 39.95457 | 82 ft | 72 kts | 208° |
| 2026-04-26 13:46 | 43.44025 | 39.94906 | 113 ft | 162 kts | 208° |
| 2026-04-26 13:46 | 43.43078 | 39.94195 | 1587 ft | 125 kts | 207° |
| 2026-04-26 13:47 | 43.42196 | 39.93828 | 2699 ft | 151 kts | 179° |
| 2026-04-26 13:47 | 43.41050 | 39.93764 | 3703 ft | 178 kts | 186° |
| 2026-04-26 13:47 | 43.39746 | 39.93396 | 4861 ft | 204 kts | 191° |
| 2026-04-26 13:47 | 43.38273 | 39.92959 | 6059 ft | 229 kts | 190° |
| 2026-04-26 13:48 | 43.36625 | 39.92522 | 7222 ft | 253 kts | 191° |
| 2026-04-26 13:48 | 43.34865 | 39.92060 | 8660 ft | 259 kts | 192° |
| 2026-04-26 13:48 | 43.33087 | 39.91568 | 10276 ft | 264 kts | 193° |
| 2026-04-26 13:48 | 43.31200 | 39.91029 | 11373 ft | 289 kts | 194° |
| 2026-04-26 13:49 | 43.29204 | 39.90465 | 12731 ft | 300 kts | 193° |
| 2026-04-26 13:49 | 43.27125 | 39.89903 | 14189 ft | 309 kts | 193° |
| 2026-04-26 13:49 | 43.24990 | 39.89293 | 15479 ft | 317 kts | 198° |
| 2026-04-26 13:49 | 43.23014 | 39.87942 | 16767 ft | 321 kts | 217° |
| 2026-04-26 13:50 | 43.21387 | 39.85829 | 18054 ft | 326 kts | 233° |
| 2026-04-26 13:50 | 43.20290 | 39.83093 | 19181 ft | 332 kts | 250° |
| 2026-04-26 13:50 | 43.19854 | 39.79955 | 20253 ft | 338 kts | 267° |
| 2026-04-26 13:50 | 43.20171 | 39.76732 | 21258 ft | 346 kts | 284° |
| 2026-04-26 13:51 | 43.21238 | 39.73783 | 22240 ft | 357 kts | 302° |
| 2026-04-26 13:51 | 43.23029 | 39.71374 | 23234 ft | 369 kts | 322° |
| 2026-04-26 13:51 | 43.25369 | 39.69792 | 24083 ft | 380 kts | 334° |
| 2026-04-26 13:51 | 43.27859 | 39.68508 | 24901 ft | 385 kts | 336° |
| 2026-04-26 13:52 | 43.30372 | 39.67197 | 25710 ft | 388 kts | 334° |
| 2026-04-26 13:52 | 43.32875 | 39.65771 | 26497 ft | 392 kts | 333° |
| 2026-04-26 13:52 | 43.35406 | 39.64328 | 27277 ft | 396 kts | 334° |
| 2026-04-26 13:52 | 43.37990 | 39.62940 | 28047 ft | 401 kts | 336° |
| 2026-04-26 13:53 | 43.40617 | 39.61572 | 28799 ft | 405 kts | 336° |
| 2026-04-26 13:53 | 43.43251 | 39.60149 | 29542 ft | 409 kts | 335° |
| 2026-04-26 13:53 | 43.45897 | 39.58655 | 30230 ft | 413 kts | 334° |
| 2026-04-26 13:53 | 43.48585 | 39.57172 | 30828 ft | 418 kts | 337° |
| 2026-04-26 13:54 | 43.51438 | 39.56211 | 31405 ft | 427 kts | 347° |
| 2026-04-26 13:54 | 43.54423 | 39.55888 | 31959 ft | 435 kts | 357° |
| 2026-04-26 13:54 | 43.57466 | 39.56284 | 32491 ft | 444 kts | 6° |
| 2026-04-26 13:55 | 43.63347 | 39.59239 | 33662 ft | 457 kts | 27° |
| 2026-04-26 13:55 | 43.65112 | 39.60827 | 34087 ft | 459 kts | 34° |
| 2026-04-26 13:55 | 43.70083 | 39.68521 | 34977 ft | 476 kts | 59° |
| 2026-04-26 13:56 | 43.71561 | 39.72702 | 34987 ft | 491 kts | 64° |
| 2026-04-26 13:56 | 43.73015 | 39.77040 | 34998 ft | 503 kts | 63° |
| 2026-04-26 13:56 | 43.74590 | 39.81422 | 34996 ft | 513 kts | 62° |
| 2026-04-26 13:57 | 43.77659 | 39.90379 | 34995 ft | 515 kts | 70° |
| 2026-04-26 13:57 | 43.79182 | 40.00017 | 34989 ft | 514 kts | 82° |
| 2026-04-26 13:58 | 43.80388 | 40.09786 | 34992 ft | 516 kts | 78° |
| 2026-04-26 13:58 | 43.81767 | 40.19539 | 34990 ft | 514 kts | 81° |
| 2026-04-26 13:59 | 43.82852 | 40.29236 | 34989 ft | 512 kts | 81° |
| 2026-04-26 13:59 | 43.84191 | 40.38946 | 35000 ft | 514 kts | 79° |
| 2026-04-26 14:00 | 43.86555 | 40.58485 | 34934 ft | 511 kts | 79° |
| 2026-04-26 14:01 | 43.87845 | 40.68133 | 34936 ft | 513 kts | 79° |
| 2026-04-26 14:01 | 43.90182 | 40.77467 | 34931 ft | 515 kts | 65° |
| 2026-04-26 14:02 | 43.93009 | 40.86618 | 34925 ft | 515 kts | 66° |
| 2026-04-26 14:02 | 43.95797 | 40.95750 | 34925 ft | 513 kts | 65° |
| 2026-04-26 14:03 | 43.98678 | 41.04850 | 34922 ft | 516 kts | 66° |
| 2026-04-26 14:03 | 44.00980 | 41.12533 | 34916 ft | 520 kts | 66° |
| 2026-04-26 14:04 | 44.03840 | 41.21761 | 34910 ft | 519 kts | 65° |
| 2026-04-26 14:04 | 44.06671 | 41.30976 | 34913 ft | 518 kts | 67° |
| 2026-04-26 14:05 | 44.09434 | 41.40201 | 34913 ft | 517 kts | 66° |
| 2026-04-26 14:05 | 44.11856 | 41.49631 | 34899 ft | 519 kts | 78° |
| 2026-04-26 14:06 | 44.12797 | 41.59598 | 34904 ft | 520 kts | 84° |
| 2026-04-26 14:06 | 44.13805 | 41.69565 | 34903 ft | 520 kts | 82° |
| 2026-04-26 14:07 | 44.14642 | 41.79574 | 34907 ft | 521 kts | 85° |
| 2026-04-26 14:07 | 44.15492 | 41.89557 | 34901 ft | 517 kts | 82° |
| 2026-04-26 14:08 | 44.16434 | 41.99395 | 34901 ft | 515 kts | 84° |
| 2026-04-26 14:08 | 44.17182 | 42.09339 | 34907 ft | 518 kts | 84° |
| 2026-04-26 14:09 | 44.18121 | 42.19323 | 34909 ft | 519 kts | 83° |
| 2026-04-26 14:09 | 44.18923 | 42.29305 | 34914 ft | 517 kts | 85° |
| 2026-04-26 14:10 | 44.19734 | 42.39255 | 34916 ft | 516 kts | 83° |
| 2026-04-26 14:10 | 44.20620 | 42.49206 | 34920 ft | 519 kts | 84° |
| 2026-04-26 14:11 | 44.21777 | 42.64189 | 34922 ft | 521 kts | 83° |
| 2026-04-26 14:11 | 44.45652 | 45.43861 | 34948 ft | 0 kts | 83° |
| 2026-04-26 14:11 | 44.57686 | 46.85561 | 35158 ft | 515 kts | 85° |
| 2026-04-26 14:12 | 44.58311 | 46.90414 | 35051 ft | 494 kts | 73° |
| 2026-04-26 14:12 | 44.59503 | 46.94782 | 35042 ft | 467 kts | 64° |
| 2026-04-26 14:12 | 44.60857 | 46.98792 | 35043 ft | 443 kts | 62° |
| 2026-04-26 14:12 | 44.62251 | 47.02543 | 35045 ft | 426 kts | 59° |
| 2026-04-26 14:13 | 44.65354 | 47.09788 | 35053 ft | 446 kts | 54° |
| 2026-04-26 14:13 | 44.67122 | 47.13464 | 35050 ft | 461 kts | 52° |
| 2026-04-26 14:13 | 44.69025 | 47.17164 | 35062 ft | 474 kts | 51° |
| 2026-04-26 14:14 | 44.71064 | 47.20878 | 35077 ft | 486 kts | 49° |
| 2026-04-26 14:14 | 44.73237 | 47.24596 | 35081 ft | 498 kts | 47° |
| 2026-04-26 14:14 | 44.75513 | 47.28261 | 35078 ft | 509 kts | 45° |
| 2026-04-26 14:15 | 44.80487 | 47.35550 | 35082 ft | 518 kts | 41° |
| 2026-04-26 14:15 | 44.85761 | 47.42392 | 35091 ft | 512 kts | 38° |
| 2026-04-26 14:16 | 44.91277 | 47.48725 | 35090 ft | 512 kts | 34° |
| 2026-04-26 14:16 | 44.97065 | 47.54594 | 35099 ft | 513 kts | 30° |
| 2026-04-26 14:17 | 45.03271 | 47.59295 | 35078 ft | 499 kts | 12° |
| 2026-04-26 14:17 | 45.10021 | 47.61077 | 35093 ft | 491 kts | 3° |
| 2026-04-26 14:18 | 45.16735 | 47.62917 | 35101 ft | 500 kts | 11° |
| 2026-04-26 14:18 | 45.23424 | 47.65753 | 35098 ft | 500 kts | 11° |
| 2026-04-26 14:19 | 45.30166 | 47.67953 | 35101 ft | 495 kts | 6° |
| 2026-04-26 14:19 | 45.36871 | 47.70180 | 35104 ft | 497 kts | 11° |
| 2026-04-26 14:20 | 45.43548 | 47.72811 | 35102 ft | 498 kts | 9° |
| 2026-04-26 14:20 | 45.50318 | 47.74933 | 35102 ft | 499 kts | 8° |
| 2026-04-26 14:21 | 45.57036 | 47.77488 | 35105 ft | 499 kts | 11° |
| 2026-04-26 14:21 | 45.63759 | 47.79864 | 35105 ft | 495 kts | 7° |
| 2026-04-26 14:22 | 45.70463 | 47.82131 | 35107 ft | 496 kts | 10° |
| 2026-04-26 14:22 | 45.77152 | 47.84711 | 35107 ft | 499 kts | 9° |
| 2026-04-26 14:23 | 45.83913 | 47.86960 | 35106 ft | 499 kts | 8° |
| 2026-04-26 14:23 | 45.90635 | 47.89469 | 35104 ft | 498 kts | 10° |
| 2026-04-26 14:24 | 45.97317 | 47.91341 | 35096 ft | 487 kts | 358° |
| 2026-04-26 14:24 | 46.03978 | 47.90756 | 35097 ft | 476 kts | 343° |
| 2026-04-26 14:25 | 46.10169 | 47.87751 | 35103 ft | 466 kts | 328° |
| 2026-04-26 14:25 | 46.12961 | 47.85447 | 35280 ft | 455 kts | 321° |
| 2026-04-26 14:25 | 46.15451 | 47.82785 | 36067 ft | 443 kts | 315° |
| 2026-04-26 14:26 | 46.19716 | 47.76210 | 36090 ft | 449 kts | 305° |
| 2026-04-26 14:26 | 46.23737 | 47.69359 | 36091 ft | 450 kts | 307° |
| 2026-04-26 14:27 | 46.27780 | 47.62483 | 36091 ft | 448 kts | 305° |
| 2026-04-26 14:27 | 46.31749 | 47.55545 | 36086 ft | 448 kts | 306° |
| 2026-04-26 14:28 | 46.35795 | 47.48688 | 36077 ft | 447 kts | 306° |
| 2026-04-26 14:28 | 46.39744 | 47.41757 | 36071 ft | 446 kts | 305° |
| 2026-04-26 14:29 | 46.43741 | 47.34881 | 36065 ft | 446 kts | 306° |
| 2026-04-26 14:29 | 46.47710 | 47.27980 | 36060 ft | 444 kts | 305° |
| 2026-04-26 14:30 | 46.51651 | 47.21068 | 36056 ft | 444 kts | 306° |
| 2026-04-26 14:30 | 46.70038 | 46.84364 | 36044 ft | 32000 kts | 306° |
| 2026-04-26 14:30 | 46.99403 | 46.25181 | 35996 ft | 454 kts | 313° |
| 2026-04-26 14:30 | 47.02066 | 46.22766 | 35995 ft | 445 kts | 330° |
| 2026-04-26 14:31 | 47.04859 | 46.21107 | 35987 ft | 421 kts | 332° |
| 2026-04-26 14:31 | 47.07546 | 46.19494 | 35090 ft | 418 kts | 330° |
| 2026-04-26 14:31 | 47.10197 | 46.17892 | 34987 ft | 409 kts | 332° |
| 2026-04-26 14:31 | 47.12920 | 46.16456 | 34977 ft | 424 kts | 334° |
| 2026-04-26 14:32 | 48.32598 | 45.35474 | 35042 ft | 0 kts | 335° |
| 2026-04-26 14:32 | 48.35029 | 45.33736 | 34936 ft | 430 kts | 327° |
| 2026-04-26 14:32 | 48.37607 | 45.31727 | 34922 ft | 406 kts | 328° |
| 2026-04-26 14:32 | 48.40207 | 45.30264 | 34917 ft | 392 kts | 338° |
| 2026-04-26 14:33 | 48.42816 | 45.29401 | 34903 ft | 377 kts | 344° |
| 2026-04-26 14:33 | 48.58338 | 45.25486 | 34956 ft | 32000 kts | 348° |
| 2026-04-26 14:34 | 49.64019 | 45.13021 | 34052 ft | 411 kts | 348° |
| 2026-04-26 14:34 | 49.66882 | 45.13546 | 33900 ft | 412 kts | 11° |
| 2026-04-26 14:34 | 49.69458 | 45.15297 | 34020 ft | 394 kts | 21° |
| 2026-04-26 14:34 | 49.71918 | 45.16929 | 34031 ft | 378 kts | 13° |
| 2026-04-26 14:35 | 49.74465 | 45.18184 | 34032 ft | 392 kts | 10° |
| 2026-04-26 14:35 | 49.77159 | 45.19303 | 34048 ft | 408 kts | 8° |
| 2026-04-26 14:35 | 50.23028 | 45.29464 | 34088 ft | 32000 kts | 8° |
| 2026-04-26 14:35 | 50.29441 | 45.36939 | 34089 ft | 419 kts | 7° |
| 2026-04-26 14:36 | 50.32334 | 45.37671 | 34107 ft | 418 kts | 9° |
| 2026-04-26 14:36 | 50.35024 | 45.39160 | 34030 ft | 403 kts | 17° |
| 2026-04-26 14:36 | 50.37646 | 45.40926 | 32332 ft | 422 kts | 19° |
| 2026-04-26 14:36 | 50.40452 | 45.42631 | 30956 ft | 435 kts | 12° |
| 2026-04-26 14:37 | 50.43353 | 45.43726 | 30984 ft | 439 kts | 6° |
| 2026-04-26 14:37 | 50.46377 | 45.44504 | 31519 ft | 441 kts | 4° |
| 2026-04-26 14:37 | 50.49425 | 45.45277 | 32092 ft | 446 kts | 6° |
| 2026-04-26 14:37 | 50.52528 | 45.46322 | 32030 ft | 467 kts | 9° |
| 2026-04-26 14:38 | 50.55740 | 45.47635 | 31952 ft | 486 kts | 11° |
| 2026-04-26 14:38 | 50.59067 | 45.48996 | 31858 ft | 500 kts | 9° |
| 2026-04-26 14:38 | 50.62481 | 45.50162 | 31847 ft | 503 kts | 7° |
| 2026-04-26 14:39 | 50.69339 | 45.52407 | 31845 ft | 504 kts | 8° |
| 2026-04-26 14:39 | 50.76190 | 45.54868 | 31843 ft | 502 kts | 8° |
| 2026-04-26 14:39 | 50.79495 | 45.55987 | 31814 ft | 471 kts | 7° |
| 2026-04-26 14:40 | 50.82607 | 45.57018 | 31782 ft | 443 kts | 8° |
| 2026-04-26 14:40 | 50.85528 | 45.58063 | 31650 ft | 421 kts | 8° |
| 2026-04-26 14:40 | 50.88352 | 45.59135 | 30903 ft | 417 kts | 9° |
| 2026-04-26 14:40 | 50.91164 | 45.60179 | 30186 ft | 412 kts | 8° |
| 2026-04-26 14:41 | 50.93950 | 45.61150 | 29426 ft | 408 kts | 7° |
| 2026-04-26 14:41 | 50.96676 | 45.62083 | 28635 ft | 404 kts | 8° |
| 2026-04-26 14:41 | 50.99408 | 45.63064 | 27871 ft | 400 kts | 8° |
| 2026-04-26 14:41 | 51.02107 | 45.64085 | 27125 ft | 397 kts | 9° |
| 2026-04-26 14:42 | 51.04708 | 45.65593 | 26380 ft | 400 kts | 22° |
| 2026-04-26 14:42 | 51.07180 | 45.67582 | 25675 ft | 397 kts | 23° |
| 2026-04-26 14:42 | 51.09672 | 45.69432 | 24988 ft | 393 kts | 20° |
| 2026-04-26 14:42 | 51.12169 | 45.71146 | 24319 ft | 390 kts | 20° |
| 2026-04-26 14:43 | 51.14636 | 45.72936 | 23671 ft | 388 kts | 22° |
| 2026-04-26 14:43 | 51.17052 | 45.74837 | 22997 ft | 385 kts | 23° |
| 2026-04-26 14:43 | 51.19440 | 45.76729 | 22310 ft | 381 kts | 22° |
| 2026-04-26 14:43 | 51.21828 | 45.78512 | 21651 ft | 376 kts | 21° |
| 2026-04-26 14:44 | 51.24200 | 45.80217 | 21008 ft | 372 kts | 21° |
| 2026-04-26 14:44 | 51.26537 | 45.81946 | 20384 ft | 368 kts | 22° |
| 2026-04-26 14:44 | 51.28832 | 45.83722 | 19777 ft | 365 kts | 22° |
| 2026-04-26 14:44 | 51.31105 | 45.85491 | 19181 ft | 361 kts | 22° |
| 2026-04-26 14:45 | 51.33368 | 45.87197 | 18603 ft | 357 kts | 21° |
| 2026-04-26 14:45 | 51.34854 | 45.88294 | 18229 ft | 355 kts | 21° |
| 2026-04-26 14:45 | 51.37833 | 45.90519 | 17389 ft | 351 kts | 22° |
| 2026-04-26 14:45 | 51.39993 | 45.92180 | 16773 ft | 347 kts | 23° |
| 2026-04-26 14:46 | 51.42161 | 45.93855 | 16178 ft | 344 kts | 23° |
| 2026-04-26 14:46 | 51.44310 | 45.95488 | 15604 ft | 340 kts | 22° |
| 2026-04-26 14:46 | 51.46445 | 45.97090 | 15035 ft | 337 kts | 22° |
| 2026-04-26 14:46 | 51.48563 | 45.98695 | 14465 ft | 335 kts | 23° |
| 2026-04-26 14:47 | 51.50654 | 46.00303 | 13927 ft | 332 kts | 24° |
| 2026-04-26 14:47 | 51.52728 | 46.01902 | 13374 ft | 329 kts | 24° |
| 2026-04-26 14:47 | 51.54783 | 46.03473 | 12797 ft | 326 kts | 24° |
| 2026-04-26 14:47 | 51.56762 | 46.05201 | 12219 ft | 324 kts | 35° |
| 2026-04-26 14:48 | 51.58469 | 46.07554 | 11692 ft | 321 kts | 42° |
| 2026-04-26 14:48 | 51.60174 | 46.09842 | 11174 ft | 317 kts | 38° |
| 2026-04-26 14:48 | 51.61931 | 46.11967 | 10647 ft | 315 kts | 37° |
| 2026-04-26 14:48 | 51.63651 | 46.14110 | 10145 ft | 312 kts | 39° |
| 2026-04-26 14:49 | 51.65312 | 46.16332 | 9647 ft | 309 kts | 41° |
| 2026-04-26 14:49 | 51.66944 | 46.18566 | 9101 ft | 306 kts | 41° |
| 2026-04-26 14:49 | 51.68581 | 46.20732 | 8536 ft | 304 kts | 40° |
| 2026-04-26 14:49 | 51.70236 | 46.22847 | 7989 ft | 303 kts | 39° |
| 2026-04-26 14:50 | 51.71331 | 46.24249 | 7630 ft | 302 kts | 40° |
| 2026-04-26 14:50 | 51.72958 | 46.26384 | 7104 ft | 301 kts | 40° |
| 2026-04-26 14:50 | 51.75083 | 46.29227 | 6429 ft | 295 kts | 40° |
| 2026-04-26 14:50 | 51.76578 | 46.31199 | 5859 ft | 262 kts | 40° |
| 2026-04-26 14:51 | 51.77935 | 46.32959 | 5225 ft | 241 kts | 40° |
| 2026-04-26 14:51 | 51.78808 | 46.34104 | 4652 ft | 239 kts | 43° |
| 2026-04-26 14:51 | 51.79983 | 46.36963 | 3499 ft | 227 kts | 78° |
| 2026-04-26 14:51 | 51.80207 | 46.38578 | 2965 ft | 219 kts | 93° |
| 2026-04-26 14:52 | 51.80092 | 46.40826 | 2812 ft | 190 kts | 112° |
| 2026-04-26 14:52 | 51.79608 | 46.42869 | 2818 ft | 196 kts | 130° |
| 2026-04-26 14:52 | 51.78974 | 46.44796 | 2811 ft | 205 kts | 110° |
| 2026-04-26 14:52 | 51.78979 | 46.47194 | 2813 ft | 214 kts | 101° |
| 2026-04-26 14:53 | 51.78430 | 46.49171 | 2827 ft | 178 kts | 146° |
| 2026-04-26 14:53 | 51.77456 | 46.50114 | 2830 ft | 151 kts | 165° |
| 2026-04-26 14:53 | 51.76480 | 46.50308 | 2820 ft | 137 kts | 188° |
| 2026-04-26 14:53 | 51.75570 | 46.49928 | 2816 ft | 137 kts | 203° |
| 2026-04-26 14:54 | 51.74802 | 46.49009 | 2817 ft | 139 kts | 220° |
| 2026-04-26 14:54 | 51.74098 | 46.47947 | 2819 ft | 138 kts | 217° |
| 2026-04-26 14:54 | 51.73360 | 46.46966 | 2820 ft | 138 kts | 214° |
| 2026-04-26 14:54 | 51.72618 | 46.45987 | 2823 ft | 137 kts | 215° |
| 2026-04-26 14:55 | 51.71885 | 46.45006 | 2817 ft | 136 kts | 215° |
| 2026-04-26 14:55 | 51.71256 | 46.43897 | 2839 ft | 131 kts | 229° |
| 2026-04-26 14:55 | 51.70873 | 46.42604 | 2839 ft | 129 kts | 241° |
| 2026-04-26 14:55 | 51.70810 | 46.41104 | 2793 ft | 139 kts | 261° |
| 2026-04-26 14:56 | 51.70799 | 46.39573 | 2617 ft | 134 kts | 257° |
| 2026-04-26 14:56 | 51.70797 | 46.38061 | 2435 ft | 135 kts | 260° |
| 2026-04-26 14:56 | 51.70815 | 46.36546 | 2254 ft | 135 kts | 260° |
| 2026-04-26 14:56 | 51.70845 | 46.35027 | 2068 ft | 137 kts | 261° |
| 2026-04-26 14:57 | 51.70886 | 46.33479 | 1883 ft | 140 kts | 261° |
| 2026-04-26 14:57 | 51.70921 | 46.31907 | 1705 ft | 140 kts | 261° |
| 2026-04-26 14:57 | 51.70960 | 46.30359 | 1507 ft | 138 kts | 261° |
| 2026-04-26 14:57 | 51.70990 | 46.28809 | 1321 ft | 136 kts | 262° |
| 2026-04-26 14:58 | 51.71024 | 46.27277 | 1126 ft | 142 kts | 264° |
| 2026-04-26 14:58 | 51.71064 | 46.25670 | 931 ft | 141 kts | 265° |
| 2026-04-26 14:58 | 51.71099 | 46.24101 | 739 ft | 141 kts | 265° |
| 2026-04-26 14:58 | 51.71142 | 46.22542 | 553 ft | 141 kts | 264° |
| 2026-04-26 14:59 | 51.71164 | 46.20954 | 362 ft | 144 kts | 268° |
| 2026-04-26 14:59 | 51.71192 | 46.19385 | 219 ft | 131 kts | 275° |
| 2026-04-26 14:59 | 51.71255 | 46.18036 | 111 ft | 104 kts | 274° |
| 2026-04-26 14:59 | 51.71283 | 46.17498 | 103 ft | 20 kts | 279° |
| 2026-04-26 15:00 | 51.71383 | 46.17426 | 101 ft | 16 kts | 357° |
| 2026-04-26 15:00 | 51.71508 | 46.17412 | 101 ft | 20 kts | 352° |
| 2026-04-26 15:00 | 51.71632 | 46.17355 | 101 ft | 14 kts | 290° |
| 2026-04-26 15:00 | 51.71642 | 46.17200 | 100 ft | 13 kts | 317° |
| 2026-04-26 15:01 | 51.71689 | 46.17214 | 100 ft | 4 kts | 23° |
| 2026-04-26 15:01 | 51.71714 | 46.17234 | 100 ft | 4 kts | 6° |
| 2026-04-26 15:01 | 51.71718 | 46.17234 | 100 ft | 0 kts | 5° |
| 2026-04-26 15:01 | 51.71719 | 46.17234 | 100 ft | 0 kts | 2° |